createdAt,value
2022-10-19T00:01:38.753Z,76.57
2022-10-19T00:04:08.849Z,76.38
2022-10-19T00:06:39.981Z,76.90
2022-10-19T00:09:11.436Z,77.03
2022-10-19T00:11:42.476Z,77.10
2022-10-19T00:14:14.189Z,77.01
2022-10-19T00:16:44.545Z,77.04
2022-10-19T00:19:14.584Z,77.34
2022-10-19T00:21:45.412Z,77.37
2022-10-19T00:24:14.667Z,77.13
2022-10-19T00:26:43.978Z,77.16
2022-10-19T00:29:13.601Z,77.12
2022-10-19T00:31:43.248Z,77.24
2022-10-19T00:34:12.279Z,77.26
2022-10-19T00:36:44.358Z,77.27
2022-10-19T00:39:16.405Z,77.22
2022-10-19T00:41:47.269Z,77.34
2022-10-19T00:44:53.311Z,77.25
2022-10-19T00:47:25.885Z,77.72
2022-10-19T00:49:55.848Z,77.45
2022-10-19T00:52:27.770Z,77.09
2022-10-19T00:55:00.234Z,77.48
2022-10-19T00:57:32.659Z,77.39
2022-10-19T01:00:05.183Z,77.50
2022-10-19T01:02:34.551Z,77.30
2022-10-19T01:05:05.308Z,77.56
2022-10-19T01:07:37.238Z,77.44
2022-10-19T01:10:07.304Z,77.65
2022-10-19T01:12:53.233Z,78.05
2022-10-19T01:15:32.708Z,77.93
2022-10-19T01:18:12.265Z,77.99
2022-10-19T01:21:09.794Z,78.13
2022-10-19T01:24:01.897Z,78.51
2022-10-19T01:26:50.635Z,78.08
2022-10-19T01:29:29.074Z,78.19
2022-10-19T01:32:07.299Z,78.11
2022-10-19T01:34:45.053Z,78.37
2022-10-19T01:37:22.575Z,78.08
2022-10-19T01:39:59.239Z,78.14
2022-10-19T01:42:33.247Z,78.24
2022-10-19T01:45:07.102Z,78.84
2022-10-19T01:47:41.267Z,79.64
2022-10-19T01:50:17.308Z,79.21
2022-10-19T01:52:47.832Z,79.25
2022-10-19T01:55:19.324Z,78.66
2022-10-19T01:57:50.416Z,79.06
2022-10-19T02:00:20.869Z,79.04
2022-10-19T02:02:52.188Z,79.17
2022-10-19T02:05:28.159Z,78.99
2022-10-19T02:08:00.422Z,78.86
2022-10-19T02:10:31.016Z,79.04
2022-10-19T02:13:01.822Z,79.09
2022-10-19T02:15:36.603Z,79.20
2022-10-19T02:18:09.425Z,79.03
2022-10-19T02:20:38.842Z,79.35
2022-10-19T02:23:08.946Z,78.99
2022-10-19T02:25:38.510Z,78.71
2022-10-19T02:28:07.738Z,78.91
2022-10-19T02:30:36.985Z,78.67
2022-10-19T02:33:07.952Z,79.07
2022-10-19T02:35:37.242Z,78.95
2022-10-19T02:38:08.437Z,79.17
2022-10-19T02:40:43.109Z,79.19
2022-10-19T02:43:15.417Z,79.34
2022-10-19T02:45:50.194Z,79.34
2022-10-19T02:48:23.715Z,79.19
2022-10-19T02:50:53.102Z,79.51
2022-10-19T02:53:22.165Z,79.98
2022-10-19T02:55:52.698Z,79.87
2022-10-19T02:58:21.448Z,80.65
2022-10-19T03:00:50.710Z,80.75
2022-10-19T03:03:21.125Z,80.44
2022-10-19T03:05:50.335Z,80.53
2022-10-19T03:08:19.338Z,80.36
2022-10-19T03:10:48.568Z,80.99
2022-10-19T03:13:17.564Z,80.66
2022-10-19T03:15:47.498Z,81.12
2022-10-19T03:18:16.448Z,80.73
2022-10-19T03:20:47.118Z,80.97
2022-10-19T03:23:16.069Z,81.36
2022-10-19T03:25:45.262Z,81.38
2022-10-19T03:28:15.999Z,80.95
2022-10-19T03:30:45.204Z,81.37
2022-10-19T03:33:14.246Z,81.37
2022-10-19T03:35:43.505Z,81.29
2022-10-19T03:38:13.962Z,81.79
2022-10-19T03:40:43.330Z,81.87
2022-10-19T03:43:12.327Z,82.01
2022-10-19T03:45:41.522Z,82.13
2022-10-19T03:48:10.511Z,82.20
2022-10-19T03:50:39.714Z,82.14
2022-10-19T03:53:08.713Z,82.12
2022-10-19T03:55:39.282Z,81.66
2022-10-19T03:58:08.222Z,81.79
2022-10-19T04:00:37.456Z,82.11
2022-10-19T04:03:06.421Z,82.23
2022-10-19T04:05:35.641Z,81.92
2022-10-19T04:08:04.655Z,82.11
2022-10-19T04:10:33.817Z,82.30
2022-10-19T04:13:04.188Z,82.23
2022-10-19T04:15:33.475Z,82.29
2022-10-19T04:18:02.475Z,82.05
2022-10-19T04:20:31.637Z,82.31
2022-10-19T04:23:00.808Z,82.11
2022-10-19T04:25:30.007Z,82.25
2022-10-19T04:27:59.027Z,82.18
2022-10-19T04:30:29.601Z,82.27
2022-10-19T04:32:58.649Z,82.45
2022-10-19T04:35:27.844Z,82.07
2022-10-19T04:37:56.823Z,82.61
2022-10-19T04:40:26.055Z,82.42
2022-10-19T04:42:55.019Z,82.56
2022-10-19T04:45:24.234Z,82.66
2022-10-19T04:47:56.765Z,82.65
2022-10-19T04:50:26.196Z,82.93
2022-10-19T04:52:57.861Z,82.69
2022-10-19T04:55:27.143Z,82.83
2022-10-19T04:57:56.173Z,82.57
2022-10-19T05:00:25.393Z,82.78
2022-10-19T05:02:55.831Z,82.77
2022-10-19T05:05:26.706Z,82.88
2022-10-19T05:07:55.707Z,82.64
2022-10-19T05:10:25.035Z,82.60
2022-10-19T05:12:54.542Z,82.50
2022-10-19T05:15:23.711Z,82.82
2022-10-19T05:17:54.110Z,82.48
2022-10-19T05:20:23.793Z,82.35
2022-10-19T05:22:53.113Z,82.13
2022-10-19T05:25:22.376Z,82.58
2022-10-19T05:27:54.781Z,82.40
2022-10-19T05:30:24.015Z,82.33
2022-10-19T05:32:54.409Z,82.14
2022-10-19T05:35:23.659Z,82.47
2022-10-19T05:37:55.991Z,82.28
2022-10-19T05:40:25.259Z,82.04
2022-10-19T05:42:54.375Z,82.39
2022-10-19T05:45:23.582Z,82.36
2022-10-19T05:47:53.989Z,82.12
2022-10-19T05:50:23.226Z,82.37
2022-10-19T05:52:52.224Z,82.07
2022-10-19T05:55:21.425Z,82.14
2022-10-19T05:57:50.413Z,82.22
2022-10-19T06:00:19.799Z,82.16
2022-10-19T06:02:48.817Z,82.03
2022-10-19T06:05:19.412Z,82.42
2022-10-19T06:07:48.434Z,82.39
2022-10-19T06:10:17.788Z,82.31
2022-10-19T06:12:46.875Z,82.30
2022-10-19T06:15:16.320Z,81.98
2022-10-19T06:17:45.335Z,82.41
2022-10-19T06:20:14.597Z,82.00
2022-10-19T06:22:44.996Z,82.15
2022-10-19T06:25:17.976Z,81.83
2022-10-19T06:27:49.350Z,82.39
2022-10-19T06:30:18.710Z,81.97
2022-10-19T06:32:47.844Z,81.84
2022-10-19T06:35:17.240Z,82.23
2022-10-19T06:37:47.749Z,82.23
2022-10-19T06:40:17.164Z,81.78
2022-10-19T06:42:46.217Z,81.71
2022-10-19T06:45:15.584Z,81.98
2022-10-19T06:47:44.726Z,81.63
2022-10-19T06:50:14.184Z,81.65
2022-10-19T06:52:43.248Z,81.56
2022-10-19T06:55:13.987Z,81.90
2022-10-19T06:57:43.051Z,81.49
2022-10-19T07:00:13.477Z,81.34
2022-10-19T07:02:42.307Z,81.49
2022-10-19T07:05:11.993Z,81.29
2022-10-19T07:07:41.213Z,81.03
2022-10-19T07:10:12.338Z,80.87
2022-10-19T07:12:41.442Z,80.64
2022-10-19T07:15:11.588Z,81.23
2022-10-19T07:17:40.736Z,80.71
2022-10-19T07:20:11.737Z,80.81
2022-10-19T07:22:40.759Z,80.50
2022-10-19T07:25:10.453Z,80.37
2022-10-19T07:27:40.999Z,80.49
2022-10-19T07:30:10.927Z,79.95
2022-10-19T07:32:43.194Z,80.02
2022-10-19T07:35:16.302Z,79.95
2022-10-19T07:37:45.267Z,79.89
2022-10-19T07:40:15.129Z,79.79
2022-10-19T07:42:45.453Z,79.79
2022-10-19T07:45:14.795Z,79.66
2022-10-19T07:47:43.799Z,80.01
2022-10-19T07:50:13.017Z,79.49
2022-10-19T07:52:42.261Z,79.68
2022-10-19T07:55:11.965Z,79.53
2022-10-19T07:57:43.635Z,79.29
2022-10-19T08:00:16.444Z,78.72
2022-10-19T08:02:57.772Z,78.74
2022-10-19T08:05:35.125Z,78.43
2022-10-19T08:08:04.396Z,78.56
2022-10-19T08:10:33.638Z,78.58
2022-10-19T08:13:02.597Z,78.40
2022-10-19T08:15:33.205Z,77.80
2022-10-19T08:18:02.554Z,77.64
2022-10-19T08:20:31.692Z,77.65
2022-10-19T08:23:02.114Z,77.28
2022-10-19T08:25:31.387Z,77.09
2022-10-19T08:28:00.378Z,76.73
2022-10-19T08:30:29.597Z,76.89
2022-10-19T08:33:00.050Z,76.45
2022-10-19T08:35:31.149Z,76.67
2022-10-19T08:38:02.766Z,76.33
2022-10-19T08:40:33.155Z,76.42
2022-10-19T08:43:10.160Z,76.04
2022-10-19T08:45:42.832Z,76.35
2022-10-19T08:48:26.701Z,76.10
2022-10-19T08:50:57.501Z,75.77
2022-10-19T08:53:37.041Z,75.59
2022-10-19T08:56:49.316Z,75.88
2022-10-19T08:59:25.170Z,75.52
2022-10-19T09:01:58.125Z,75.07
2022-10-19T09:04:33.871Z,75.22
2022-10-19T09:07:27.436Z,74.93
2022-10-19T09:10:00.765Z,74.67
2022-10-19T09:12:44.136Z,73.95
2022-10-19T09:15:15.903Z,73.58
2022-10-19T09:17:45.207Z,73.52
2022-10-19T09:20:21.464Z,73.16
2022-10-19T09:23:01.307Z,73.04
2022-10-19T09:25:34.700Z,72.71
2022-10-19T09:28:15.750Z,73.02
2022-10-19T09:30:46.577Z,72.47
2022-10-19T09:33:22.559Z,72.32
2022-10-19T09:35:54.626Z,71.84
2022-10-19T09:38:28.067Z,70.96
2022-10-19T09:40:59.197Z,71.08
2022-10-19T09:43:28.556Z,70.85
2022-10-19T09:46:09.620Z,70.76
2022-10-19T09:48:50.300Z,70.25
2022-10-19T09:51:22.074Z,70.11
2022-10-19T09:53:54.086Z,69.18
2022-10-19T09:56:24.749Z,69.55
2022-10-19T09:58:57.271Z,69.30
2022-10-19T10:01:41.653Z,68.09
2022-10-19T10:04:17.314Z,66.99
2022-10-19T10:06:50.612Z,67.15
2022-10-19T10:09:23.302Z,66.95
2022-10-19T10:14:31.834Z,66.88
2022-10-19T10:17:05.748Z,66.64
2022-10-19T10:19:37.326Z,66.45
2022-10-19T10:22:24.252Z,65.49
2022-10-19T10:24:56.125Z,64.86
2022-10-19T10:27:34.349Z,65.08
2022-10-19T10:30:09.276Z,65.05
2022-10-19T10:32:45.772Z,65.57
2022-10-19T10:35:20.870Z,65.18
2022-10-19T10:37:52.544Z,64.93
2022-10-19T10:40:25.638Z,64.38
2022-10-19T10:42:58.428Z,64.33
2022-10-19T10:45:32.988Z,63.59
2022-10-19T10:48:23.802Z,62.87
2022-10-19T10:50:54.035Z,62.21
2022-10-19T10:53:45.284Z,61.73
2022-10-19T10:56:25.992Z,61.62
2022-10-19T10:59:04.355Z,62.54
2022-10-19T11:01:39.265Z,62.17
2022-10-19T11:04:15.095Z,62.49
2022-10-19T11:06:49.036Z,62.74
2022-10-19T11:09:27.342Z,62.49
2022-10-19T11:12:01.111Z,62.18
2022-10-19T11:14:38.405Z,62.77
2022-10-19T11:17:15.313Z,61.13
2022-10-19T11:19:45.683Z,61.11
2022-10-19T11:22:27.117Z,60.58
2022-10-19T11:25:16.902Z,59.84
2022-10-19T11:27:57.398Z,58.80
2022-10-19T11:30:29.674Z,56.62
2022-10-19T11:33:07.528Z,57.98
2022-10-19T11:36:01.357Z,58.95
2022-10-19T11:38:53.557Z,58.98
2022-10-19T11:41:56.353Z,59.81
2022-10-19T11:45:57.682Z,59.69
2022-10-19T11:49:31.594Z,59.80
2022-10-19T11:52:13.717Z,59.86
2022-10-19T11:54:57.749Z,59.39
2022-10-19T11:57:46.484Z,59.00
2022-10-19T12:00:39.206Z,59.33
2022-10-19T12:03:28.006Z,59.71
2022-10-19T12:06:09.209Z,58.98
2022-10-19T12:09:05.065Z,59.23
2022-10-19T12:11:50.454Z,59.85
2022-10-19T12:14:26.776Z,59.63
2022-10-19T12:17:21.650Z,59.69
2022-10-19T12:20:17.382Z,59.73
2022-10-19T12:23:10.213Z,59.59
2022-10-19T12:25:56.833Z,59.18
2022-10-19T12:28:31.216Z,59.58
2022-10-19T12:31:39.155Z,59.67
2022-10-19T12:34:16.516Z,59.74
2022-10-19T12:36:53.689Z,60.08
2022-10-19T12:39:36.092Z,60.21
2022-10-19T12:45:55.563Z,59.57
2022-10-19T12:48:32.474Z,59.43
2022-10-19T12:51:25.390Z,59.14
2022-10-19T12:54:12.091Z,59.01
2022-10-19T12:56:50.252Z,58.79
2022-10-19T12:59:37.639Z,58.98
2022-10-19T13:02:46.304Z,59.22
2022-10-19T13:05:25.246Z,57.99
2022-10-19T13:07:58.362Z,59.07
2022-10-19T13:10:32.809Z,59.24
2022-10-19T13:13:03.141Z,58.88
2022-10-19T13:16:00.041Z,58.60
2022-10-19T13:19:09.494Z,58.50
2022-10-19T13:22:28.597Z,58.56
2022-10-19T13:25:28.345Z,58.53
2022-10-19T13:28:31.539Z,58.97
2022-10-19T13:31:06.975Z,58.77
2022-10-19T13:33:48.444Z,58.47
2022-10-19T13:36:18.772Z,58.78
2022-10-19T13:39:05.978Z,58.43
2022-10-19T13:41:52.983Z,57.89
2022-10-19T13:44:35.469Z,57.54
2022-10-19T13:47:34.506Z,58.08
2022-10-19T13:50:39.509Z,57.59
2022-10-19T13:53:30.566Z,57.82
2022-10-19T13:56:23.320Z,58.02
2022-10-19T13:59:40.165Z,57.86
2022-10-19T14:02:40.832Z,58.19
2022-10-19T14:05:29.769Z,58.50
2022-10-19T14:08:48.704Z,58.35
2022-10-19T14:11:22.841Z,58.79
2022-10-19T14:14:17.232Z,59.19
2022-10-19T14:16:57.092Z,59.77
2022-10-19T14:19:32.142Z,60.07
2022-10-19T14:22:02.909Z,60.83
2022-10-19T14:24:35.009Z,60.91
2022-10-19T14:27:07.890Z,61.09
2022-10-19T14:29:47.093Z,61.45
2022-10-19T14:32:18.356Z,62.04
2022-10-19T14:34:49.490Z,61.92
2022-10-19T14:37:20.993Z,62.05
2022-10-19T14:40:03.151Z,62.18
2022-10-19T14:42:45.408Z,62.70
2022-10-19T14:45:22.395Z,62.67
2022-10-19T14:48:00.128Z,63.25
2022-10-19T14:53:27.197Z,63.61
2022-10-19T14:56:02.498Z,63.34
2022-10-19T14:58:38.718Z,62.94
2022-10-19T15:01:08.980Z,63.36
2022-10-19T15:03:40.275Z,63.21
2022-10-19T15:06:20.072Z,62.85
2022-10-19T15:08:51.909Z,62.97
2022-10-19T15:11:30.609Z,62.79
2022-10-19T15:14:04.878Z,62.91
2022-10-19T15:16:43.166Z,62.84
2022-10-19T15:19:22.956Z,62.77
2022-10-19T15:22:07.984Z,62.98
2022-10-19T15:24:37.970Z,62.80
2022-10-19T15:27:10.328Z,62.77
2022-10-19T15:29:40.823Z,63.18
2022-10-19T15:32:17.821Z,62.74
2022-10-19T15:34:47.985Z,63.20
2022-10-19T15:37:22.175Z,63.14
2022-10-19T15:39:52.606Z,62.61
2022-10-19T15:42:34.618Z,63.08
2022-10-19T15:45:25.871Z,63.25
2022-10-19T15:48:28.243Z,62.81
2022-10-19T15:50:58.685Z,63.20
2022-10-19T15:53:27.950Z,63.39
2022-10-19T15:55:57.077Z,63.16
2022-10-19T15:58:26.655Z,63.45
2022-10-19T16:00:57.103Z,63.50
2022-10-19T16:03:26.342Z,63.66
2022-10-19T16:05:56.108Z,63.74
2022-10-19T16:08:25.412Z,63.79
2022-10-19T16:10:54.450Z,63.41
2022-10-19T16:13:23.643Z,63.90
2022-10-19T16:16:01.386Z,63.67
2022-10-19T16:18:42.438Z,63.95
2022-10-19T16:21:11.525Z,64.13
2022-10-19T16:23:42.109Z,64.02
2022-10-19T16:26:12.959Z,64.25
2022-10-19T16:28:42.351Z,64.48
2022-10-19T16:31:12.009Z,64.67
2022-10-19T16:33:42.610Z,64.70
2022-10-19T16:36:11.835Z,64.55
2022-10-19T16:38:41.513Z,64.96
2022-10-19T16:41:12.205Z,64.99
2022-10-19T16:43:41.608Z,64.99
2022-10-19T16:46:12.384Z,64.84
2022-10-19T16:48:43.028Z,64.94
2022-10-19T16:51:25.202Z,65.02
2022-10-19T16:53:57.144Z,65.20
2022-10-19T16:56:28.329Z,64.94
2022-10-19T16:59:00.636Z,65.49
2022-10-19T17:01:31.165Z,65.36
2022-10-19T17:04:02.377Z,65.48
2022-10-19T17:06:31.488Z,65.78
2022-10-19T17:11:50.369Z,65.94
2022-10-19T17:14:19.587Z,65.97
2022-10-19T17:16:48.687Z,66.13
2022-10-19T17:19:19.325Z,65.96
2022-10-19T17:21:49.462Z,66.15
2022-10-19T17:24:21.977Z,66.27
2022-10-19T17:26:53.120Z,66.10
2022-10-19T17:29:22.946Z,66.37
2022-10-19T17:31:52.664Z,66.33
2022-10-19T17:34:23.237Z,66.39
2022-10-19T17:36:52.298Z,66.48
2022-10-19T17:39:25.793Z,66.67
2022-10-19T17:42:01.847Z,66.80
2022-10-19T17:44:32.096Z,66.93
2022-10-19T17:47:01.933Z,66.91
2022-10-19T17:49:32.551Z,66.93
2022-10-19T17:52:01.815Z,67.05
2022-10-19T17:54:36.292Z,67.21
2022-10-19T17:57:12.780Z,67.20
2022-10-19T17:59:52.667Z,67.31
2022-10-19T18:02:22.081Z,67.15
2022-10-19T18:04:53.113Z,67.41
2022-10-19T18:07:25.769Z,67.57
2022-10-19T18:09:54.978Z,67.51
2022-10-19T18:12:24.008Z,67.60
2022-10-19T18:14:53.294Z,67.83
2022-10-19T18:17:25.437Z,67.74
2022-10-19T18:20:13.725Z,67.92
2022-10-19T18:25:21.842Z,68.25
2022-10-19T18:27:59.805Z,68.17
2022-10-19T18:30:29.380Z,68.31
2022-10-19T18:32:59.678Z,68.29
2022-10-19T18:35:30.460Z,68.38
2022-10-19T18:37:59.844Z,68.28
2022-10-19T18:40:29.284Z,68.37
2022-10-19T18:42:58.433Z,68.24
2022-10-19T18:45:28.751Z,68.11
2022-10-19T18:47:57.609Z,68.26
2022-10-19T18:50:26.877Z,68.34
2022-10-19T18:52:57.267Z,68.19
2022-10-19T18:55:26.520Z,68.20
2022-10-19T18:57:55.511Z,68.02
2022-10-19T19:00:24.727Z,68.21
2022-10-19T19:02:57.007Z,68.24
2022-10-19T19:05:26.244Z,68.11
2022-10-19T19:07:56.696Z,68.14
2022-10-19T19:10:25.968Z,68.04
2022-10-19T19:12:54.996Z,68.21
2022-10-19T19:15:24.198Z,68.28
2022-10-19T19:17:56.036Z,68.32
2022-10-19T19:20:25.202Z,68.19
2022-10-19T19:22:54.239Z,68.40
2022-10-19T19:25:24.837Z,68.34
2022-10-19T19:27:53.852Z,68.58
2022-10-19T19:30:23.042Z,68.60
2022-10-19T19:32:51.988Z,68.61
2022-10-19T19:35:21.262Z,68.91
2022-10-19T19:37:50.255Z,68.75
2022-10-19T19:40:19.490Z,68.80
2022-10-19T19:42:49.930Z,68.77
2022-10-19T19:45:19.319Z,68.90
2022-10-19T19:47:48.605Z,69.05
2022-10-19T19:50:18.031Z,68.95
2022-10-19T19:52:48.566Z,68.99
2022-10-19T19:55:17.669Z,68.72
2022-10-19T19:57:49.909Z,68.89
2022-10-19T20:00:20.961Z,69.07
2022-10-19T20:02:53.946Z,68.89
2022-10-19T20:05:24.205Z,69.11
2022-10-19T20:07:53.587Z,68.83
2022-10-19T20:10:23.112Z,68.97
2022-10-19T20:12:52.225Z,68.51
2022-10-19T20:15:23.078Z,68.95
2022-10-19T20:17:52.038Z,68.54
2022-10-19T20:20:22.264Z,68.56
2022-10-19T20:22:51.299Z,68.88
2022-10-19T20:25:20.588Z,68.68
2022-10-19T20:27:49.575Z,68.57
2022-10-19T20:30:19.182Z,68.58
2022-10-19T20:32:49.553Z,68.70
2022-10-19T20:35:18.969Z,68.86
2022-10-19T20:37:50.621Z,68.60
2022-10-19T20:40:20.625Z,68.85
2022-10-19T20:42:49.685Z,68.82
2022-10-19T20:45:19.175Z,68.81
2022-10-19T20:47:49.532Z,68.72
2022-10-19T20:50:21.722Z,68.85
2022-10-19T20:52:51.060Z,68.82
2022-10-19T20:55:22.154Z,68.61
2022-10-19T20:57:51.553Z,68.76
2022-10-19T21:00:20.928Z,68.92
2022-10-19T21:02:53.506Z,68.90
2022-10-19T21:05:22.702Z,68.78
2022-10-19T21:07:51.688Z,68.74
2022-10-19T21:10:20.887Z,69.09
2022-10-19T21:12:49.882Z,69.29
2022-10-19T21:15:19.114Z,69.02
2022-10-19T21:17:50.618Z,69.14
2022-10-19T21:20:20.394Z,69.46
2022-10-19T21:22:49.439Z,69.17
2022-10-19T21:25:18.648Z,69.33
2022-10-19T21:27:47.618Z,69.23
2022-10-19T21:30:16.912Z,69.25
2022-10-19T21:32:45.920Z,69.16
2022-10-19T21:35:16.873Z,68.80
2022-10-19T21:37:45.829Z,69.06
2022-10-19T21:40:15.149Z,69.07
2022-10-19T21:42:45.065Z,69.07
2022-10-19T21:45:30.869Z,69.25
2022-10-19T21:48:00.142Z,69.25
2022-10-19T21:50:30.743Z,69.53
2022-10-19T21:52:59.995Z,69.06
2022-10-19T21:55:31.193Z,69.23
2022-10-19T21:58:00.231Z,69.13
2022-10-19T22:00:29.715Z,68.95
2022-10-19T22:02:58.880Z,69.13
2022-10-19T22:05:29.573Z,68.94
2022-10-19T22:07:58.541Z,69.52
2022-10-19T22:10:27.781Z,68.95
2022-10-19T22:12:58.113Z,69.27
2022-10-19T22:15:27.361Z,68.92
2022-10-19T22:17:56.300Z,69.13
2022-10-19T22:20:25.452Z,68.79
2022-10-19T22:22:55.956Z,68.76
2022-10-19T22:25:25.386Z,68.91
2022-10-19T22:27:54.380Z,69.02
2022-10-19T22:30:23.616Z,68.53
2022-10-19T22:32:52.593Z,68.68
2022-10-19T22:35:21.768Z,68.70
2022-10-19T22:37:50.767Z,68.66
2022-10-19T22:40:21.416Z,68.81
2022-10-19T22:42:50.577Z,68.53
2022-10-19T22:45:19.939Z,68.50
2022-10-19T22:47:49.365Z,68.43
2022-10-19T22:50:18.835Z,68.21
2022-10-19T22:52:48.070Z,68.23
2022-10-19T22:55:17.488Z,68.44
2022-10-19T22:57:48.056Z,68.34
2022-10-19T23:00:17.742Z,68.15
2022-10-19T23:02:46.897Z,67.95
2022-10-19T23:05:16.386Z,68.28
2022-10-19T23:07:45.569Z,68.12
2022-10-19T23:10:15.276Z,68.57
2022-10-19T23:12:44.480Z,68.32
2022-10-19T23:15:15.290Z,68.68
2022-10-19T23:17:44.430Z,68.52
2022-10-19T23:20:14.652Z,68.55
2022-10-19T23:22:43.706Z,68.47
2022-10-19T23:25:13.036Z,68.58
2022-10-19T23:27:42.262Z,69.04
2022-10-19T23:30:12.394Z,69.25
2022-10-19T23:32:42.957Z,69.22
2022-10-19T23:35:12.315Z,68.92
2022-10-19T23:37:41.481Z,69.16
2022-10-19T23:40:11.715Z,68.75
2022-10-19T23:42:40.789Z,69.24
2022-10-19T23:45:10.683Z,69.55
2022-10-19T23:47:41.061Z,69.24
2022-10-19T23:50:10.799Z,69.25
2022-10-19T23:52:39.845Z,69.26
2022-10-19T23:55:10.261Z,69.19
2022-10-19T23:57:39.367Z,69.52
